Time;durP1;ratioP1;P1;durP2;ratioP2;P2;SDS_P1;SDS_P2;PMS_P1;PMS_P2;Temp;Humidity;BMP_temperature;BMP_pressure;BME280_temperature;BME280_humidity;BME280_pressure;Samples;Min_cycle;Max_cycle;Signal;HPM_P1;HPM_P2
2021/05/07 00:02:04;;;;;;;3.43;3.20;;;9.10;99.90;;;;;;5045278;28;20204;-76
2021/05/07 00:04:31;;;;;;;3.13;2.93;;;9.10;99.90;;;;;;5045421;28;20327;-76
2021/05/07 00:06:57;;;;;;;3.70;3.40;;;9.10;99.90;;;;;;5045005;28;20204;-76
2021/05/07 00:09:23;;;;;;;3.17;2.97;;;9.10;99.90;;;;;;5045240;28;20204;-76
2021/05/07 00:11:49;;;;;;;3.40;3.20;;;9.10;99.90;;;;;;5045182;28;20215;-76
2021/05/07 00:14:16;;;;;;;3.30;3.10;;;9.10;99.90;;;;;;5045107;28;20204;-76
2021/05/07 00:16:42;;;;;;;3.60;3.30;;;9.10;99.90;;;;;;5045220;28;20211;-74
2021/05/07 00:19:09;;;;;;;3.43;3.23;;;9.00;99.90;;;;;;5044715;28;20291;-73
2021/05/07 00:21:35;;;;;;;3.30;3.10;;;9.00;99.90;;;;;;5045039;28;20204;-73
2021/05/07 00:24:01;;;;;;;3.37;3.17;;;9.00;99.90;;;;;;5044835;28;20209;-73
2021/05/07 00:26:28;;;;;;;3.27;3.07;;;9.00;99.90;;;;;;5044829;28;20257;-73
2021/05/07 00:28:54;;;;;;;3.03;2.83;;;9.00;99.90;;;;;;5045035;28;20219;-73
2021/05/07 00:31:21;;;;;;;4.07;2.90;;;9.00;99.90;;;;;;5044628;28;20231;-74
2021/05/07 00:33:47;;;;;;;3.70;3.50;;;9.10;99.90;;;;;;5044741;28;20205;-74
2021/05/07 00:36:13;;;;;;;3.23;3.03;;;8.90;99.90;;;;;;5044205;28;20233;-73
2021/05/07 00:38:39;;;;;;;3.17;2.97;;;8.90;99.90;;;;;;5044184;28;20236;-73
2021/05/07 00:41:06;;;;;;;3.40;3.10;;;8.90;99.90;;;;;;5045601;28;20267;-76
2021/05/07 00:43:32;;;;;;;3.37;3.17;;;9.00;99.90;;;;;;5048185;28;20231;-75
2021/05/07 00:45:58;;;;;;;3.47;3.27;;;8.90;99.90;;;;;;5047988;28;20211;-75
2021/05/07 00:48:26;;;;;;;3.97;3.20;;;8.90;99.90;;;;;;5048046;28;20272;-75
2021/05/07 00:50:52;;;;;;;2.97;2.77;;;8.90;99.90;;;;;;5048250;28;20219;-75
2021/05/07 00:53:20;;;;;;;3.30;3.10;;;8.80;99.90;;;;;;5047973;28;20344;-75
2021/05/07 00:55:46;;;;;;;3.13;2.93;;;8.90;99.90;;;;;;5047696;28;20272;-75
2021/05/07 00:58:12;;;;;;;3.27;3.07;;;8.80;99.90;;;;;;5047786;28;20212;-75
2021/05/07 01:00:39;;;;;;;3.50;3.30;;;8.90;99.90;;;;;;5047613;28;20235;-73
2021/05/07 01:03:05;;;;;;;2.93;2.73;;;8.80;99.90;;;;;;5047688;28;20574;-73
2021/05/07 01:05:32;;;;;;;3.00;2.90;;;8.80;99.90;;;;;;5047865;28;20226;-75
2021/05/07 01:07:59;;;;;;;3.90;3.60;;;8.80;99.90;;;;;;5047872;28;20227;-75
2021/05/07 01:10:25;;;;;;;3.33;3.13;;;8.90;99.90;;;;;;5047735;27;20273;-76
2021/05/07 01:12:51;;;;;;;3.30;3.10;;;8.90;99.90;;;;;;5047659;28;20670;-76
2021/05/07 01:15:19;;;;;;;3.77;3.40;;;8.80;99.90;;;;;;5032382;28;20257;-77
2021/05/07 01:17:47;;;;;;;3.17;3.00;;;8.80;99.90;;;;;;5027802;28;20663;-77
2021/05/07 01:20:15;;;;;;;3.40;3.20;;;8.80;99.90;;;;;;5027830;28;20256;-77
2021/05/07 01:22:43;;;;;;;3.00;2.90;;;8.80;99.90;;;;;;5027864;28;20216;-77
2021/05/07 01:25:10;;;;;;;2.87;2.77;;;8.80;99.90;;;;;;5027969;28;20232;-76
2021/05/07 01:27:38;;;;;;;3.20;3.00;;;8.70;99.90;;;;;;5027744;28;20209;-77
2021/05/07 01:30:13;;;;;;;3.13;2.90;;;8.70;99.90;;;;;;5027402;28;20200;-77
2021/05/07 01:32:39;;;;;;;3.27;3.07;;;8.70;99.90;;;;;;5027804;28;20208;-76
2021/05/07 01:35:09;;;;;;;3.43;3.23;;;8.70;99.90;;;;;;5027327;28;20217;-76
2021/05/07 01:37:37;;;;;;;3.40;3.20;;;8.70;99.90;;;;;;5027105;28;20267;-76
2021/05/07 01:40:11;;;;;;;3.03;2.90;;;8.70;99.90;;;;;;5027142;28;20344;-76
2021/05/07 01:42:37;;;;;;;3.53;3.30;;;8.70;99.90;;;;;;5027494;28;20207;-76
2021/05/07 01:45:05;;;;;;;3.07;2.97;;;8.70;99.90;;;;;;5027013;28;20615;-77
2021/05/07 01:47:31;;;;;;;3.13;2.93;;;8.60;99.90;;;;;;5027186;28;20208;-75
2021/05/07 01:49:57;;;;;;;3.20;3.00;;;8.70;99.90;;;;;;5027395;28;20254;-75
2021/05/07 01:52:23;;;;;;;3.57;3.27;;;8.70;99.90;;;;;;5026632;28;20552;-76
2021/05/07 01:54:50;;;;;;;3.10;3.00;;;8.70;99.90;;;;;;5027265;28;20205;-76
2021/05/07 01:57:16;;;;;;;2.93;2.73;;;8.70;99.90;;;;;;5027376;28;20217;-76
2021/05/07 01:59:42;;;;;;;3.30;3.10;;;8.70;99.90;;;;;;5026993;28;20228;-76
2021/05/07 02:02:09;;;;;;;3.40;3.20;;;8.60;99.90;;;;;;5027242;28;20205;-76
2021/05/07 02:04:35;;;;;;;3.27;3.07;;;8.60;99.90;;;;;;5027062;28;20212;-76
2021/05/07 02:07:01;;;;;;;3.43;3.13;;;8.60;99.90;;;;;;5026916;28;20212;-76
2021/05/07 02:09:27;;;;;;;3.37;3.10;;;8.60;99.90;;;;;;5026897;28;20220;-77
2021/05/07 02:11:54;;;;;;;3.07;2.87;;;8.60;99.90;;;;;;5027148;28;20217;-77
2021/05/07 02:14:20;;;;;;;3.87;3.57;;;8.60;99.90;;;;;;5026998;28;20340;-78
2021/05/07 02:16:46;;;;;;;3.20;3.00;;;8.60;99.90;;;;;;5027751;27;20397;-74
2021/05/07 02:19:12;;;;;;;3.30;3.10;;;8.60;99.90;;;;;;5026640;28;20209;-74
2021/05/07 02:21:38;;;;;;;3.20;3.00;;;8.60;99.90;;;;;;5026340;28;20205;-74
2021/05/07 02:24:05;;;;;;;3.67;3.47;;;8.60;99.90;;;;;;5026822;28;20216;-74
2021/05/07 02:26:31;;;;;;;3.00;2.80;;;8.50;99.90;;;;;;5026696;28;20685;-74
2021/05/07 02:28:59;;;;;;;3.50;3.30;;;8.50;99.90;;;;;;5026772;28;20213;-77
2021/05/07 02:31:25;;;;;;;3.40;3.20;;;8.50;99.90;;;;;;5026757;28;20232;-77
2021/05/07 02:33:51;;;;;;;3.90;3.47;;;8.40;99.90;;;;;;5026448;28;20670;-76
2021/05/07 02:36:17;;;;;;;6.60;3.90;;;8.50;99.90;;;;;;5026277;28;20659;-76
2021/05/07 02:38:44;;;;;;;4.07;3.77;;;8.40;99.90;;;;;;5026187;28;20236;-76
2021/05/07 02:41:10;;;;;;;3.90;3.70;;;8.40;99.90;;;;;;5026308;28;20241;-76
2021/05/07 02:43:36;;;;;;;3.70;3.50;;;8.40;99.90;;;;;;5026523;28;20205;-76
2021/05/07 02:46:03;;;;;;;3.80;3.60;;;8.40;99.90;;;;;;5026360;28;20213;-76
2021/05/07 02:48:29;;;;;;;3.50;3.30;;;8.40;99.90;;;;;;5026478;28;20219;-76
2021/05/07 02:50:55;;;;;;;4.20;3.90;;;8.40;99.90;;;;;;5026916;28;20216;-76
2021/05/07 02:53:21;;;;;;;3.93;3.53;;;8.40;99.90;;;;;;5026008;28;20602;-76
2021/05/07 02:55:47;;;;;;;3.70;3.40;;;8.30;99.90;;;;;;5026002;28;20576;-79
2021/05/07 02:58:14;;;;;;;4.47;4.03;;;8.30;99.90;;;;;;5026387;28;20208;-76
2021/05/07 03:00:40;;;;;;;4.50;4.20;;;8.30;99.90;;;;;;5025988;28;20670;-76
2021/05/07 03:03:07;;;;;;;3.70;3.40;;;8.30;99.90;;;;;;5025436;28;20273;-76
2021/05/07 03:05:33;;;;;;;3.60;3.40;;;8.30;99.90;;;;;;5030256;28;20201;-75
2021/05/07 03:07:59;;;;;;;4.07;3.77;;;8.30;99.90;;;;;;5027166;28;20201;-76
2021/05/07 03:10:25;;;;;;;3.80;3.60;;;8.30;99.90;;;;;;5027898;28;20209;-79
2021/05/07 03:12:51;;;;;;;3.90;3.63;;;8.30;99.90;;;;;;5041775;28;20305;-79
2021/05/07 03:15:17;;;;;;;3.70;3.40;;;8.30;99.90;;;;;;5040226;28;20258;-77
2021/05/07 03:17:44;;;;;;;3.63;3.43;;;8.30;99.90;;;;;;5022392;28;20232;-78
2021/05/07 03:20:14;;;;;;;3.77;3.50;;;8.30;99.90;;;;;;5022179;28;20271;-77
2021/05/07 03:22:40;;;;;;;3.50;3.30;;;8.30;99.90;;;;;;5022113;28;20209;-78
2021/05/07 03:25:07;;;;;;;3.83;3.53;;;8.30;99.90;;;;;;5021631;28;20670;-78
2021/05/07 03:27:33;;;;;;;4.13;3.80;;;8.30;99.90;;;;;;5021845;28;20244;-78
2021/05/07 03:30:00;;;;;;;3.70;3.50;;;8.20;99.90;;;;;;5022272;28;20286;-77
2021/05/07 03:32:26;;;;;;;3.80;3.60;;;8.20;99.90;;;;;;5021888;28;20282;-81
2021/05/07 03:34:52;;;;;;;3.90;3.70;;;8.20;99.90;;;;;;5022795;28;20611;-79
2021/05/07 03:37:19;;;;;;;4.00;3.73;;;8.20;99.90;;;;;;5021377;28;20264;-78
2021/05/07 03:39:46;;;;;;;4.33;4.03;;;8.20;99.90;;;;;;5021103;28;20232;-79
2021/05/07 03:42:12;;;;;;;4.03;3.73;;;8.10;99.90;;;;;;5021437;28;20589;-79
2021/05/07 03:44:41;;;;;;;4.20;3.90;;;8.10;99.90;;;;;;5022005;28;20289;-79
2021/05/07 03:47:07;;;;;;;4.07;3.73;;;8.10;99.90;;;;;;5021974;28;20212;-79
2021/05/07 03:49:33;;;;;;;4.07;3.87;;;8.10;99.90;;;;;;5021766;28;20224;-80
2021/05/07 03:52:00;;;;;;;3.97;3.77;;;8.10;99.90;;;;;;5022153;28;20253;-80
2021/05/07 03:54:28;;;;;;;3.93;3.63;;;8.20;99.90;;;;;;5021612;28;20675;-79
2021/05/07 03:56:54;;;;;;;4.17;3.87;;;8.10;99.90;;;;;;5021813;28;20247;-79
2021/05/07 03:59:20;;;;;;;4.33;3.93;;;8.10;99.90;;;;;;5027771;28;20201;-79
2021/05/07 04:01:47;;;;;;;6.00;4.10;;;8.20;99.90;;;;;;5035577;28;20265;-78
2021/05/07 04:04:13;;;;;;;4.70;4.40;;;8.20;99.90;;;;;;5032136;27;20620;-79
2021/05/07 04:06:39;;;;;;;4.10;3.80;;;8.20;99.90;;;;;;5023832;28;20618;-78
2021/05/07 04:09:09;;;;;;;4.10;3.90;;;8.20;99.90;;;;;;5024427;28;20241;-78
2021/05/07 04:11:41;;;;;;;3.80;3.60;;;8.20;99.90;;;;;;5023769;28;20287;-79
2021/05/07 04:14:07;;;;;;;4.40;4.00;;;8.20;99.90;;;;;;5024231;28;20292;-79
2021/05/07 04:16:33;;;;;;;4.07;3.77;;;8.20;99.90;;;;;;5027697;28;20277;-79
2021/05/07 04:18:59;;;;;;;3.93;3.73;;;8.30;99.90;;;;;;5027922;28;20208;-79
2021/05/07 04:21:25;;;;;;;4.83;3.63;;;8.20;99.90;;;;;;5027444;28;20415;-81
2021/05/07 04:23:52;;;;;;;3.33;3.03;;;8.20;99.90;;;;;;5027600;28;20229;-79
2021/05/07 04:26:18;;;;;;;4.40;3.10;;;7.80;99.90;;;;;;5027530;28;20205;-79
2021/05/07 04:28:46;;;;;;;3.37;3.07;;;7.60;99.90;;;;;;5027830;28;20211;-79
2021/05/07 04:31:12;;;;;;;6.03;3.13;;;7.40;99.90;;;;;;5027230;28;20286;-80
2021/05/07 04:33:38;;;;;;;3.20;3.00;;;7.20;99.90;;;;;;5036897;28;20269;-78
2021/05/07 04:36:05;;;;;;;3.27;3.07;;;7.20;99.90;;;;;;5039338;28;20256;-79
2021/05/07 04:38:31;;;;;;;3.43;3.23;;;7.30;99.90;;;;;;5038707;28;20702;-79
2021/05/07 04:40:58;;;;;;;3.30;2.93;;;7.10;99.90;;;;;;5038265;28;20278;-78
2021/05/07 04:43:24;;;;;;;3.37;2.70;;;7.10;99.90;;;;;;5036943;28;20201;-79
2021/05/07 04:45:51;;;;;;;2.90;2.67;;;7.20;99.90;;;;;;5036538;28;20200;-79
2021/05/07 04:48:18;;;;;;;3.17;2.87;;;7.00;99.90;;;;;;5041363;28;20208;-79
2021/05/07 04:50:44;;;;;;;3.73;2.70;;;7.10;99.90;;;;;;5037206;28;20303;-78
2021/05/07 04:53:10;;;;;;;2.80;2.60;;;7.30;99.90;;;;;;5037112;28;20246;-79
2021/05/07 04:55:37;;;;;;;2.90;2.43;;;7.00;99.90;;;;;;5039043;28;20209;-81
2021/05/07 04:58:03;;;;;;;2.50;2.30;;;7.10;99.90;;;;;;5032192;28;20201;-78
2021/05/07 05:00:30;;;;;;;2.43;2.20;;;7.20;99.90;;;;;;5030908;28;20264;-78
2021/05/07 05:02:57;;;;;;;2.63;2.00;;;6.90;99.90;;;;;;5030323;28;20559;-77
2021/05/07 05:05:23;;;;;;;2.37;2.03;;;6.80;99.90;;;;;;5038217;28;20204;-77
2021/05/07 05:07:51;;;;;;;3.03;2.20;;;6.80;99.90;;;;;;5028441;28;20193;-79
2021/05/07 05:10:18;;;;;;;4.73;2.20;;;6.90;99.90;;;;;;5027347;28;20205;-79
2021/05/07 05:12:44;;;;;;;3.83;2.27;;;6.90;99.90;;;;;;5027871;28;20666;-77
2021/05/07 05:15:11;;;;;;;2.00;1.90;;;7.00;99.90;;;;;;5027091;28;20213;-77
2021/05/07 05:17:37;;;;;;;2.03;1.83;;;7.00;99.90;;;;;;5027344;28;20301;-78
2021/05/07 05:20:07;;;;;;;2.40;2.20;;;7.10;99.90;;;;;;5027232;28;20235;-78
2021/05/07 05:22:36;;;;;;;3.20;2.00;;;7.10;99.90;;;;;;5027859;28;20209;-78
2021/05/07 05:25:05;;;;;;;2.17;1.70;;;7.10;99.90;;;;;;5027955;28;20211;-78
2021/05/07 05:27:32;;;;;;;1.70;1.60;;;7.30;99.90;;;;;;5027191;28;20646;-78
2021/05/07 05:29:58;;;;;;;2.67;1.73;;;7.40;99.90;;;;;;5027712;28;20217;-78
2021/05/07 05:32:24;;;;;;;2.07;1.87;;;7.40;99.90;;;;;;5027666;28;20223;-78
2021/05/07 05:34:51;;;;;;;4.57;2.00;;;7.40;99.90;;;;;;5027804;28;20205;-78
2021/05/07 05:37:18;;;;;;;2.40;2.20;;;7.50;99.90;;;;;;5027325;28;20248;-78
2021/05/07 05:39:44;;;;;;;2.67;2.00;;;7.40;99.90;;;;;;5027382;28;20272;-78
2021/05/07 05:42:10;;;;;;;3.17;2.07;;;7.50;99.90;;;;;;5027385;28;20227;-78
2021/05/07 05:44:37;;;;;;;5.40;2.20;;;7.60;99.90;;;;;;5028253;28;20212;-78
2021/05/07 05:47:03;;;;;;;1.93;1.77;;;7.60;99.90;;;;;;5027705;28;20219;-78
2021/05/07 05:49:29;;;;;;;2.43;2.00;;;7.80;99.90;;;;;;5027361;28;20270;-78
2021/05/07 05:51:55;;;;;;;2.30;2.10;;;7.80;99.90;;;;;;5027805;28;20209;-78
2021/05/07 05:54:22;;;;;;;3.03;2.10;;;7.90;99.90;;;;;;5027411;28;20255;-78
2021/05/07 05:56:48;;;;;;;3.57;2.33;;;7.90;99.90;;;;;;5027396;28;20213;-78
2021/05/07 05:59:14;;;;;;;2.97;1.80;;;7.80;99.90;;;;;;5026319;28;20212;-78
2021/05/07 06:01:40;;;;;;;2.03;1.77;;;7.70;99.90;;;;;;5026788;28;20584;-78
2021/05/07 06:04:06;;;;;;;2.13;1.50;;;7.50;99.90;;;;;;5027172;28;20208;-78
2021/05/07 06:06:32;;;;;;;3.07;1.77;;;7.70;99.90;;;;;;5026573;28;20588;-78
2021/05/07 06:08:59;;;;;;;2.33;2.13;;;7.70;99.90;;;;;;5027236;28;20662;-78
2021/05/07 06:11:26;;;;;;;1.87;1.60;;;7.80;99.90;;;;;;5026941;28;20213;-78
2021/05/07 06:13:52;;;;;;;3.27;1.97;;;7.80;99.90;;;;;;5027052;28;20296;-78
2021/05/07 06:16:18;;;;;;;3.83;1.90;;;7.80;99.90;;;;;;5026986;28;20209;-79
2021/05/07 06:18:44;;;;;;;1.93;1.77;;;7.80;99.90;;;;;;5027047;28;20209;-78
2021/05/07 06:21:10;;;;;;;2.93;1.90;;;7.80;99.90;;;;;;5026876;28;20266;-78
2021/05/07 06:23:36;;;;;;;2.07;1.90;;;8.00;99.90;;;;;;5026743;28;20236;-78
2021/05/07 06:26:03;;;;;;;3.37;1.90;;;8.00;99.90;;;;;;5027090;28;20217;-78
2021/05/07 06:28:30;;;;;;;2.50;1.97;;;8.10;99.90;;;;;;5026534;28;20670;-78
2021/05/07 06:30:58;;;;;;;4.47;1.70;;;8.20;99.90;;;;;;5027038;28;20586;-79
2021/05/07 06:33:25;;;;;;;2.80;2.20;;;8.30;99.90;;;;;;5026777;28;20205;-78
2021/05/07 06:35:51;;;;;;;3.03;2.00;;;8.30;99.90;;;;;;5027847;28;20577;-78
2021/05/07 06:38:17;;;;;;;2.10;1.90;;;8.30;99.90;;;;;;5025516;28;20699;-78
2021/05/07 06:40:43;;;;;;;5.30;1.90;;;8.30;99.90;;;;;;5026127;28;20846;-78
2021/05/07 06:43:10;;;;;;;3.23;1.90;;;8.30;99.90;;;;;;5026832;28;20209;-78
2021/05/07 06:45:37;;;;;;;1.80;1.70;;;8.30;99.90;;;;;;5026507;28;20209;-78
2021/05/07 06:48:04;;;;;;;2.20;1.77;;;8.30;99.90;;;;;;5026741;28;20226;-78
2021/05/07 06:50:30;;;;;;;2.73;1.83;;;8.30;99.90;;;;;;5026020;28;20217;-77
2021/05/07 06:52:56;;;;;;;3.83;2.00;;;8.30;99.90;;;;;;5026532;28;20209;-78
2021/05/07 06:55:22;;;;;;;4.30;2.03;;;8.40;99.90;;;;;;5026240;28;20212;-78
2021/05/07 06:57:50;;;;;;;4.73;1.83;;;8.40;99.90;;;;;;5026283;28;20213;-78
2021/05/07 07:00:17;;;;;;;3.17;1.83;;;8.40;99.90;;;;;;5026273;28;20324;-78
2021/05/07 07:02:44;;;;;;;2.70;1.70;;;8.40;99.90;;;;;;5026396;28;20270;-78
2021/05/07 07:05:11;;;;;;;1.87;1.67;;;8.40;99.90;;;;;;5026544;28;20322;-78
2021/05/07 07:07:38;;;;;;;1.83;1.70;;;8.30;99.90;;;;;;5026210;27;20257;-78
2021/05/07 07:10:05;;;;;;;4.40;1.70;;;8.30;99.90;;;;;;5025895;28;20216;-78
2021/05/07 07:12:31;;;;;;;2.17;1.73;;;8.30;99.90;;;;;;5025981;28;20216;-78
2021/05/07 07:14:57;;;;;;;4.17;1.90;;;8.30;99.90;;;;;;5025690;28;20580;-78
2021/05/07 07:17:23;;;;;;;1.70;1.60;;;8.20;99.90;;;;;;5025925;28;20205;-78
2021/05/07 07:19:50;;;;;;;3.17;1.83;;;8.30;99.90;;;;;;5026105;28;20225;-78
2021/05/07 07:22:17;;;;;;;2.10;1.90;;;8.20;99.90;;;;;;5025603;28;20719;-78
2021/05/07 07:24:43;;;;;;;2.30;1.63;;;8.20;99.90;;;;;;5025311;28;20291;-78
2021/05/07 07:27:09;;;;;;;5.10;2.00;;;8.20;99.90;;;;;;5025808;28;20209;-77
2021/05/07 07:29:35;;;;;;;3.23;2.10;;;8.20;99.90;;;;;;5025940;28;20204;-78
2021/05/07 07:32:02;;;;;;;3.07;2.00;;;8.20;99.90;;;;;;5025438;28;20322;-78
2021/05/07 07:34:28;;;;;;;3.13;1.80;;;8.20;99.90;;;;;;5025842;28;20367;-78
2021/05/07 07:36:55;;;;;;;2.90;1.77;;;8.10;99.90;;;;;;5025955;28;20244;-78
2021/05/07 07:39:21;;;;;;;3.13;1.77;;;8.10;99.90;;;;;;5025440;28;20640;-77
2021/05/07 07:41:48;;;;;;;2.93;1.83;;;8.00;99.90;;;;;;5025752;28;20289;-77
2021/05/07 07:44:14;;;;;;;2.77;1.90;;;7.90;99.90;;;;;;5025788;28;20576;-78
2021/05/07 07:46:41;;;;;;;4.67;1.70;;;7.90;99.90;;;;;;5039163;28;20221;-77
2021/05/07 07:49:07;;;;;;;4.00;2.00;;;7.90;99.90;;;;;;5045540;28;20204;-78
2021/05/07 07:51:34;;;;;;;3.83;1.93;;;7.70;99.90;;;;;;5045950;28;20265;-78
2021/05/07 07:54:03;;;;;;;4.30;1.97;;;7.60;99.90;;;;;;5045614;28;20204;-78
2021/05/07 07:56:29;;;;;;;2.40;1.63;;;7.50;99.90;;;;;;5045334;28;20204;-78
2021/05/07 07:58:55;;;;;;;3.97;2.07;;;7.40;99.90;;;;;;5045642;28;20200;-78
2021/05/07 08:01:22;;;;;;;3.97;1.90;;;7.30;99.90;;;;;;5045660;27;20228;-78
2021/05/07 08:03:49;;;;;;;4.70;1.80;;;7.20;99.90;;;;;;5045071;28;20605;-78
2021/05/07 08:06:16;;;;;;;3.80;2.10;;;7.10;99.90;;;;;;5045082;28;20208;-78
2021/05/07 08:08:42;;;;;;;4.90;2.13;;;7.10;99.90;;;;;;5045285;28;20208;-78
2021/05/07 08:11:09;;;;;;;3.57;1.93;;;7.10;99.90;;;;;;5045416;28;20208;-78
2021/05/07 08:13:35;;;;;;;1.87;1.77;;;7.20;99.90;;;;;;5045395;28;20204;-78
2021/05/07 08:16:01;;;;;;;2.23;2.03;;;7.20;99.90;;;;;;5045212;28;20216;-77
2021/05/07 08:18:28;;;;;;;2.43;2.07;;;7.20;99.90;;;;;;5044891;28;20665;-77
2021/05/07 08:20:54;;;;;;;2.03;1.70;;;7.10;99.90;;;;;;5045222;28;20227;-77
2021/05/07 08:23:20;;;;;;;2.07;1.87;;;7.10;99.90;;;;;;5045141;28;20208;-77
2021/05/07 08:25:46;;;;;;;2.13;1.80;;;7.10;99.90;;;;;;5045185;27;20428;-77
2021/05/07 08:28:13;;;;;;;2.87;1.70;;;6.70;99.90;;;;;;5045300;28;20602;-78
2021/05/07 08:30:39;;;;;;;1.80;1.70;;;6.70;99.90;;;;;;5044812;28;20231;-77
2021/05/07 08:33:05;;;;;;;2.07;1.77;;;6.40;99.90;;;;;;5045088;28;20269;-77
2021/05/07 08:35:32;;;;;;;2.83;1.43;;;6.20;99.90;;;;;;5044906;28;20257;-77
2021/05/07 08:38:00;;;;;;;2.60;1.80;;;6.20;99.90;;;;;;5044651;28;20297;-78
2021/05/07 08:40:27;;;;;;;1.77;1.40;;;6.10;99.90;;;;;;5044673;28;20308;-78
2021/05/07 08:42:54;;;;;;;2.70;1.60;;;6.10;99.90;;;;;;5045272;28;20204;-77
2021/05/07 08:45:22;;;;;;;2.30;1.87;;;5.90;99.90;;;;;;5044743;28;20253;-78
2021/05/07 08:47:52;;;;;;;2.87;1.90;;;5.80;99.90;;;;;;5044889;28;20231;-78
2021/05/07 08:50:19;;;;;;;1.50;1.40;;;5.90;99.90;;;;;;5044854;28;20302;-78
2021/05/07 08:52:45;;;;;;;2.13;1.50;;;6.00;99.90;;;;;;5044957;28;20204;-77
2021/05/07 08:55:12;;;;;;;1.43;1.33;;;6.10;99.90;;;;;;5044494;28;20711;-77
2021/05/07 08:57:38;;;;;;;1.63;1.27;;;6.10;99.90;;;;;;5044607;28;20285;-77
2021/05/07 09:00:08;;;;;;;2.33;1.53;;;6.00;99.90;;;;;;5044446;28;20592;-77
2021/05/07 09:02:35;;;;;;;1.40;1.30;;;6.00;99.90;;;;;;5046444;28;20207;-77
2021/05/07 09:05:01;;;;;;;1.50;1.40;;;6.00;99.90;;;;;;5048187;28;20706;-77
2021/05/07 09:07:29;;;;;;;1.90;1.40;;;6.00;99.90;;;;;;5047783;28;20208;-79
2021/05/07 09:09:58;;;;;;;1.57;1.20;;;5.80;99.90;;;;;;5047878;28;20762;-78
2021/05/07 09:12:31;;;;;;;1.70;1.60;;;5.70;99.90;;;;;;5048112;28;20204;-78
2021/05/07 09:14:58;;;;;;;1.50;1.40;;;5.40;99.90;;;;;;5047863;28;20305;-78
2021/05/07 09:17:25;;;;;;;1.80;1.50;;;5.30;99.90;;;;;;5047767;28;20228;-78
2021/05/07 09:20:05;;;;;;;1.47;1.30;;;5.30;99.90;;;;;;5047685;28;20568;-78
2021/05/07 09:22:31;;;;;;;1.40;1.30;;;5.30;99.90;;;;;;5047599;28;20200;-78
2021/05/07 09:25:07;;;;;;;1.03;0.93;;;5.10;99.90;;;;;;5047514;28;20261;-78
2021/05/07 09:27:34;;;;;;;2.20;1.10;;;4.90;99.90;;;;;;5047568;28;20189;-78
2021/05/07 09:30:00;;;;;;;1.87;1.40;;;5.00;99.90;;;;;;5047165;28;20596;-78
2021/05/07 09:32:31;;;;;;;0.90;0.90;;;5.10;99.90;;;;;;5047303;28;20219;-78
2021/05/07 09:35:13;;;;;;;0.73;0.73;;;5.00;99.90;;;;;;5047581;28;20261;-78
2021/05/07 09:37:40;;;;;;;0.90;0.73;;;5.20;99.90;;;;;;5047471;28;20247;-78
2021/05/07 09:40:18;;;;;;;0.70;0.70;;;4.90;99.90;;;;;;5047301;28;20204;-78
2021/05/07 09:42:45;;;;;;;1.07;0.87;;;4.70;99.90;;;;;;5047421;27;20192;-78
2021/05/07 09:45:22;;;;;;;0.77;0.77;;;4.80;99.90;;;;;;5047220;28;20728;-78
2021/05/07 09:47:49;;;;;;;0.77;0.77;;;4.60;99.90;;;;;;5047370;28;20673;-78
2021/05/07 09:50:19;;;;;;;0.93;0.80;;;4.60;99.90;;;;;;5047568;27;20208;-78
2021/05/07 09:52:48;;;;;;;0.73;0.73;;;4.50;99.90;;;;;;5047362;27;20208;-78
2021/05/07 09:55:14;;;;;;;0.50;0.50;;;4.50;99.90;;;;;;5047467;28;20231;-78
2021/05/07 09:57:41;;;;;;;0.80;0.80;;;4.50;99.90;;;;;;5047136;28;20204;-78
2021/05/07 10:00:08;;;;;;;0.70;0.70;;;4.50;99.90;;;;;;5047037;28;20201;-78
2021/05/07 10:02:34;;;;;;;0.93;0.93;;;4.70;99.90;;;;;;5047025;28;20204;-79
2021/05/07 10:05:01;;;;;;;0.60;0.60;;;5.00;99.90;;;;;;5047183;28;20289;-78
2021/05/07 10:07:28;;;;;;;0.80;0.80;;;5.20;99.90;;;;;;5046659;28;20215;-78
2021/05/07 10:10:03;;;;;;;0.80;0.80;;;5.20;99.90;;;;;;5047056;28;20620;-78
2021/05/07 10:12:31;;;;;;;0.97;0.97;;;5.00;99.90;;;;;;5046820;28;20227;-78
2021/05/07 10:14:58;;;;;;;1.00;0.90;;;4.90;99.90;;;;;;5046952;28;20204;-77
2021/05/07 10:17:24;;;;;;;0.90;0.90;;;5.00;99.90;;;;;;5047011;28;20220;-78
2021/05/07 10:19:50;;;;;;;1.60;1.10;;;5.30;99.90;;;;;;5046813;28;20204;-78
2021/05/07 10:22:18;;;;;;;0.87;0.87;;;5.80;99.90;;;;;;5046844;28;20239;-78
2021/05/07 10:24:46;;;;;;;1.03;0.90;;;6.20;99.90;;;;;;5046597;28;20548;-78
2021/05/07 10:27:17;;;;;;;0.97;0.90;;;6.40;99.90;;;;;;5046759;28;20241;-78
2021/05/07 10:29:57;;;;;;;1.17;1.17;;;6.40;99.90;;;;;;5046767;28;20219;-78
2021/05/07 10:32:34;;;;;;;0.97;0.97;;;6.50;99.90;;;;;;5046816;28;20212;-78
2021/05/07 10:35:01;;;;;;;0.93;0.93;;;6.70;99.90;;;;;;5046533;28;20212;-78
2021/05/07 10:37:38;;;;;;;1.30;1.20;;;6.80;99.90;;;;;;5046091;28;20250;-78
2021/05/07 10:40:08;;;;;;;1.37;1.27;;;6.70;99.90;;;;;;5046198;28;20222;-78
2021/05/07 10:42:34;;;;;;;1.10;1.10;;;6.50;99.90;;;;;;5046318;28;20216;-78
2021/05/07 10:45:01;;;;;;;1.60;1.47;;;6.30;99.90;;;;;;5046463;28;20237;-78
2021/05/07 10:47:35;;;;;;;1.30;1.20;;;6.30;99.90;;;;;;5046305;28;20208;-78
2021/05/07 10:50:13;;;;;;;1.50;1.40;;;6.50;99.90;;;;;;5046438;28;20219;-78
2021/05/07 10:52:39;;;;;;;1.70;1.60;;;6.80;99.90;;;;;;5046613;28;20204;-78
2021/05/07 10:55:09;;;;;;;1.40;1.40;;;7.20;99.90;;;;;;5046410;28;20208;-78
2021/05/07 10:57:39;;;;;;;1.60;1.20;;;7.50;99.90;;;;;;5046151;28;20208;-78
2021/05/07 11:00:09;;;;;;;1.67;1.50;;;7.50;99.90;;;;;;5046211;28;20204;-79
2021/05/07 11:02:46;;;;;;;2.20;1.47;;;7.70;99.90;;;;;;5045669;28;20280;-78
2021/05/07 11:05:14;;;;;;;2.07;1.60;;;7.80;99.90;;;;;;5046094;28;20215;-78
2021/05/07 11:07:52;;;;;;;1.63;1.37;;;7.50;99.90;;;;;;5046064;27;20200;-78
2021/05/07 11:10:30;;;;;;;2.97;1.70;;;7.60;99.90;;;;;;5045813;28;20196;-78
2021/05/07 11:12:57;;;;;;;2.00;1.40;;;7.90;99.90;;;;;;5048537;28;20223;-78
2021/05/07 11:15:24;;;;;;;1.40;1.30;;;7.90;99.90;;;;;;5045734;28;20650;-78
2021/05/07 11:18:01;;;;;;;2.13;1.63;;;7.90;99.90;;;;;;5045992;28;20212;-78
2021/05/07 11:20:33;;;;;;;1.50;1.40;;;7.90;99.90;;;;;;5045815;28;20223;-78
2021/05/07 11:23:01;;;;;;;2.03;1.40;;;7.90;99.90;;;;;;5045821;28;20579;-78
2021/05/07 11:25:30;;;;;;;1.70;1.60;;;8.20;99.90;;;;;;5044750;28;20666;-78
2021/05/07 11:27:59;;;;;;;1.30;1.20;;;8.40;99.90;;;;;;5045850;28;20296;-78
2021/05/07 11:30:25;;;;;;;2.73;1.37;;;8.40;99.90;;;;;;5045703;28;20236;-78
2021/05/07 11:32:51;;;;;;;2.80;1.53;;;8.70;99.90;;;;;;5046150;28;20782;-79
2021/05/07 11:35:18;;;;;;;1.63;1.50;;;9.10;99.90;;;;;;5045914;28;20208;-78
2021/05/07 11:37:45;;;;;;;2.17;1.60;;;9.30;99.90;;;;;;5045328;28;20323;-78
2021/05/07 11:40:13;;;;;;;3.73;1.70;;;9.70;99.90;;;;;;5045483;28;20205;-79
2021/05/07 11:42:42;;;;;;;2.67;1.23;;;9.80;99.90;;;;;;5045609;28;20234;-79
2021/05/07 11:45:10;;;;;;;2.20;1.30;;;10.00;99.90;;;;;;5045734;28;20204;-78
2021/05/07 11:47:38;;;;;;;2.10;1.57;;;9.90;99.90;;;;;;5045597;28;20294;-79
2021/05/07 11:50:06;;;;;;;3.90;1.30;;;9.90;99.90;;;;;;5045457;28;20211;-79
2021/05/07 11:52:33;;;;;;;1.53;1.17;;;9.80;99.90;;;;;;5045621;28;20208;-79
2021/05/07 11:55:00;;;;;;;3.17;1.67;;;9.90;99.90;;;;;;5045652;28;20246;-79
2021/05/07 11:57:27;;;;;;;1.70;1.37;;;9.70;99.90;;;;;;5045501;28;20276;-78
2021/05/07 11:59:54;;;;;;;2.83;1.50;;;9.10;99.90;;;;;;5045221;28;20299;-79
2021/05/07 12:02:22;;;;;;;1.60;1.33;;;8.10;99.90;;;;;;5045575;28;20261;-79
2021/05/07 12:04:48;;;;;;;1.10;1.10;;;7.20;99.90;;;;;;5045576;28;20212;-78
2021/05/07 12:07:22;;;;;;;6.77;5.23;;;6.90;99.90;;;;;;5045699;28;20211;-78
2021/05/07 12:09:48;;;;;;;3.90;3.47;;;6.60;99.90;;;;;;5045407;28;20515;-79
2021/05/07 12:12:14;;;;;;;1.20;1.20;;;6.30;99.90;;;;;;5045185;28;20215;-79
2021/05/07 12:14:46;;;;;;;1.97;1.80;;;6.30;99.90;;;;;;5045280;28;20208;-79
2021/05/07 12:17:14;;;;;;;1.13;1.03;;;6.50;99.90;;;;;;5045326;28;20203;-78
2021/05/07 12:19:40;;;;;;;0.90;0.90;;;6.50;99.90;;;;;;5045307;28;20204;-78
2021/05/07 12:22:07;;;;;;;1.20;1.10;;;6.60;99.90;;;;;;5045126;28;21121;-79
2021/05/07 12:24:33;;;;;;;0.80;0.80;;;6.80;99.90;;;;;;5045204;28;20208;-78
2021/05/07 12:26:59;;;;;;;0.93;0.80;;;7.10;99.90;;;;;;5045221;28;20265;-78
2021/05/07 12:29:34;;;;;;;0.60;0.60;;;7.50;99.90;;;;;;5044732;28;20233;-78
2021/05/07 12:32:04;;;;;;;0.60;0.60;;;7.70;99.90;;;;;;5045137;28;20525;-79
2021/05/07 12:34:31;;;;;;;0.50;0.50;;;7.60;99.90;;;;;;5045016;28;20215;-78
2021/05/07 12:36:59;;;;;;;0.70;0.70;;;7.70;99.90;;;;;;5045835;28;20243;-78
2021/05/07 12:39:26;;;;;;;0.40;0.40;;;8.00;99.90;;;;;;5048470;28;20219;-78
2021/05/07 12:41:54;;;;;;;0.60;0.60;;;8.50;99.90;;;;;;5048489;28;20706;-78
2021/05/07 12:44:20;;;;;;;0.83;0.47;;;9.00;99.90;;;;;;5048526;28;20196;-79
2021/05/07 12:46:46;;;;;;;0.50;0.50;;;9.30;99.90;;;;;;5048042;28;20670;-78
2021/05/07 12:49:12;;;;;;;1.20;1.20;;;9.70;99.90;;;;;;5048330;28;20209;-78
2021/05/07 12:51:39;;;;;;;8.13;6.43;;;9.60;99.90;;;;;;5048222;28;20280;-79
2021/05/07 12:54:06;;;;;;;1.53;1.43;;;9.60;99.90;;;;;;5048444;27;20243;-79
2021/05/07 12:56:32;;;;;;;0.90;0.90;;;9.60;99.90;;;;;;5048283;28;20211;-78
2021/05/07 12:58:58;;;;;;;1.77;1.67;;;9.80;99.90;;;;;;5048436;28;20647;-78